KMEI/MEI METAR and TAF weather

Enter ICAO airport designator
Station Type Date Time Source
KMEI METAR 2021/05/14 12:58 UTC NOAA

KMEI 141258Z 02003KT 10SM CLR 16/11 A3027 RMK AO2 SLP247 T01560106 $


Station Type Date Time Source
KMEI Decoded METAR 2021/05/14 12:58 UTC NOAA

MERIDIAN KEY FIELD, MS, United States (KMEI) 32-20N 088-45W 89M
May 14, 2021 - 08:58 AM EDT / 2021.05.14 1258 UTC
Wind: from the NNE (020 degrees) at 3 MPH (3 KT):0
Visibility: 10 mile(s):0
Sky conditions: clear
Temperature: 60.1 F (15.6 C)
Dew Point: 51.1 F (10.6 C)
Relative Humidity: 72%
Pressure (altimeter): 30.27 in. Hg (1025 hPa)
ob: KMEI 141258Z 02003KT 10SM CLR 16/11 A3027 RMK AO2 SLP247 T01560106
cycle: 13

Station Type Date Time Source
KMEI TAF 2021/05/14 12:22 UTC NOAA

TAF KMEI 141120Z 1412/1512 03005KT P6SM SKC

Example: see airport list